createdAt,value
2018-02-19T00:00:02.698Z,48.80
2018-02-19T00:01:02.671Z,45.40
2018-02-19T00:02:02.656Z,49.10
2018-02-19T00:03:02.614Z,47.40
2018-02-19T00:04:02.584Z,52.20
2018-02-19T00:05:02.558Z,48.10
2018-02-19T00:06:02.527Z,48.80
2018-02-19T00:07:02.500Z,49.60
2018-02-19T00:08:02.465Z,47.40
2018-02-19T00:09:02.442Z,47.90
2018-02-19T00:10:02.426Z,47.40
2018-02-19T00:11:02.387Z,49.60
2018-02-19T00:12:02.363Z,47.60
2018-02-19T00:13:02.330Z,47.00
2018-02-19T00:14:02.306Z,48.60
2018-02-19T00:15:02.274Z,49.10
2018-02-19T00:16:02.243Z,48.10
2018-02-19T00:17:02.211Z,48.90
2018-02-19T00:18:02.189Z,49.70
2018-02-19T00:19:02.157Z,50.00
2018-02-19T00:20:02.152Z,50.40
2018-02-19T00:21:02.099Z,47.10
2018-02-19T00:22:02.077Z,47.20
2018-02-19T00:23:02.041Z,49.10
2018-02-19T00:24:02.018Z,47.80
2018-02-19T00:25:02.000Z,52.90
2018-02-19T00:26:01.966Z,48.30
2018-02-19T00:27:01.937Z,49.30
2018-02-19T00:28:01.901Z,51.20
2018-02-19T00:29:01.871Z,49.80
2018-02-19T00:30:01.851Z,47.20
2018-02-19T00:31:01.821Z,46.80
2018-02-19T00:32:01.788Z,53.50
2018-02-19T00:33:01.763Z,51.30
2018-02-19T00:34:01.732Z,52.40
2018-02-19T00:35:01.701Z,53.00
2018-02-19T00:36:01.676Z,50.20
2018-02-19T00:37:01.649Z,52.00
2018-02-19T00:38:01.620Z,50.80
2018-02-19T00:39:01.588Z,56.60
2018-02-19T00:40:01.562Z,53.20
2018-02-19T00:41:01.534Z,54.30
2018-02-19T00:42:01.504Z,50.50
2018-02-19T00:43:01.484Z,48.50
2018-02-19T00:44:01.448Z,49.20
2018-02-19T00:45:01.434Z,49.90
2018-02-19T00:46:01.391Z,52.60
2018-02-19T00:47:01.363Z,53.00
2018-02-19T00:48:01.343Z,56.10
2018-02-19T00:49:01.308Z,50.20
2018-02-19T00:50:01.287Z,52.00
2018-02-19T00:51:01.254Z,50.90
2018-02-19T00:52:01.220Z,51.30
2018-02-19T00:53:01.192Z,51.80
2018-02-19T00:54:01.164Z,55.40
2018-02-19T00:55:01.146Z,52.40
2018-02-19T00:56:01.105Z,55.30
2018-02-19T00:57:01.076Z,52.20
2018-02-19T00:58:01.050Z,51.50
2018-02-19T00:59:01.024Z,51.40
2018-02-19T01:00:00.995Z,51.60
2018-02-19T01:01:00.963Z,51.10
2018-02-19T01:02:00.942Z,56.90
2018-02-19T01:03:00.904Z,56.20
2018-02-19T01:04:00.882Z,53.00
2018-02-19T01:05:00.848Z,52.40
2018-02-19T01:06:00.822Z,57.00
2018-02-19T01:07:00.793Z,49.90
2018-02-19T01:08:00.769Z,55.10
2018-02-19T01:09:00.739Z,56.00
2018-02-19T01:10:00.708Z,54.30
2018-02-19T01:11:00.700Z,55.00
2018-02-19T01:12:00.652Z,58.10
2018-02-19T01:13:00.625Z,60.50
2018-02-19T01:14:00.599Z,59.30
2018-02-19T01:15:00.567Z,57.60
2018-02-19T01:16:00.540Z,56.90
2018-02-19T01:17:00.520Z,60.20
2018-02-19T01:18:00.481Z,55.40
2018-02-19T01:19:00.451Z,55.80
2018-02-19T01:20:00.426Z,55.90
2018-02-19T01:21:00.399Z,55.80
2018-02-19T01:22:00.371Z,58.30
2018-02-19T01:23:00.340Z,55.60
2018-02-19T01:24:00.312Z,63.20
2018-02-19T01:25:00.282Z,56.70
2018-02-19T01:26:00.257Z,57.40
2018-02-19T01:27:00.241Z,57.00
2018-02-19T01:28:00.204Z,58.20
2018-02-19T01:29:00.173Z,62.00
2018-02-19T01:30:00.139Z,59.90
2018-02-19T01:31:00.119Z,59.20
2018-02-19T01:32:00.088Z,61.30
2018-02-19T01:33:00.060Z,59.60
2018-02-19T01:34:00.028Z,59.30
2018-02-19T01:35:00.001Z,58.10
2018-02-19T01:35:59.972Z,58.20
2018-02-19T01:36:59.944Z,59.40
2018-02-19T01:37:59.917Z,55.00
2018-02-19T01:38:59.896Z,56.70
2018-02-19T01:39:59.856Z,58.70
2018-02-19T01:40:59.827Z,57.10
2018-02-19T01:41:59.801Z,60.20
2018-02-19T01:42:59.780Z,60.30
2018-02-19T01:43:59.741Z,58.50
2018-02-19T01:44:59.724Z,59.90
2018-02-19T01:45:59.683Z,57.40
2018-02-19T01:46:59.659Z,56.70
2018-02-19T01:47:59.626Z,58.60
2018-02-19T01:48:59.602Z,58.00
2018-02-19T01:49:59.570Z,56.70
2018-02-19T01:50:59.547Z,59.10
2018-02-19T01:51:59.515Z,59.70
2018-02-19T01:52:59.489Z,62.00
2018-02-19T01:53:59.466Z,59.20
2018-02-19T01:54:59.427Z,60.10
2018-02-19T01:55:59.402Z,59.40
2018-02-19T01:56:59.371Z,56.20
2018-02-19T01:57:59.386Z,58.00
2018-02-19T01:58:59.322Z,57.80
2018-02-19T01:59:59.297Z,59.80
2018-02-19T02:00:59.258Z,62.10
2018-02-19T02:01:59.235Z,61.30
2018-02-19T02:02:59.211Z,59.10
2018-02-19T02:03:59.176Z,61.40
2018-02-19T02:04:59.146Z,58.90
2018-02-19T02:05:59.118Z,57.80
2018-02-19T02:06:59.085Z,59.00
2018-02-19T02:07:59.060Z,58.50
2018-02-19T02:08:59.033Z,62.30
2018-02-19T02:09:59.002Z,60.50
2018-02-19T02:10:58.975Z,58.50
2018-02-19T02:11:58.951Z,58.00
2018-02-19T02:12:58.920Z,57.40
2018-02-19T02:13:58.891Z,61.90
2018-02-19T02:14:58.863Z,59.00
2018-02-19T02:15:58.849Z,64.20
2018-02-19T02:16:58.808Z,63.60
2018-02-19T02:17:58.775Z,66.30
2018-02-19T02:18:58.744Z,61.70
2018-02-19T02:19:58.723Z,57.10
2018-02-19T02:20:58.691Z,61.50
2018-02-19T02:21:58.661Z,59.00
2018-02-19T02:22:58.629Z,63.60
2018-02-19T02:23:58.607Z,60.60
2018-02-19T02:24:58.571Z,61.90
2018-02-19T02:25:58.572Z,60.80
2018-02-19T02:26:58.522Z,59.80
2018-02-19T02:27:58.492Z,60.30
2018-02-19T02:28:58.461Z,59.70
2018-02-19T02:29:58.431Z,61.80
2018-02-19T02:30:58.406Z,60.50
2018-02-19T02:31:58.386Z,61.10
2018-02-19T02:32:58.350Z,61.30
2018-02-19T02:33:58.317Z,62.10
2018-02-19T02:34:58.309Z,58.50
2018-02-19T02:35:58.263Z,64.30
2018-02-19T02:36:58.239Z,61.90
2018-02-19T02:37:58.205Z,61.40
2018-02-19T02:38:58.179Z,60.90
2018-02-19T02:39:58.150Z,64.00
2018-02-19T02:40:58.118Z,62.00
2018-02-19T02:41:58.094Z,61.10
2018-02-19T02:42:58.061Z,62.00
2018-02-19T02:43:58.036Z,63.50
2018-02-19T02:44:58.009Z,58.40
2018-02-19T02:45:57.981Z,62.20
2018-02-19T02:46:57.952Z,61.30
2018-02-19T02:47:57.922Z,59.80
2018-02-19T02:48:57.896Z,60.50
2018-02-19T02:49:57.862Z,65.00
2018-02-19T02:50:57.841Z,60.20
2018-02-19T02:51:57.805Z,64.60
2018-02-19T02:52:57.798Z,59.80
2018-02-19T02:53:57.750Z,61.70
2018-02-19T02:54:57.723Z,61.90
2018-02-19T02:55:57.693Z,58.00
2018-02-19T02:56:57.666Z,61.00
2018-02-19T02:57:57.657Z,59.70
2018-02-19T02:58:57.612Z,58.40
2018-02-19T02:59:57.576Z,61.00
2018-02-19T03:00:57.553Z,60.80
2018-02-19T03:01:57.526Z,57.90
2018-02-19T03:02:57.493Z,60.30
2018-02-19T03:03:57.485Z,60.50
2018-02-19T03:04:57.436Z,57.00
2018-02-19T03:05:57.426Z,57.50
2018-02-19T03:06:57.381Z,56.00
2018-02-19T03:07:57.350Z,58.00
2018-02-19T03:08:57.325Z,58.80
2018-02-19T03:09:57.297Z,56.00
2018-02-19T03:10:57.279Z,56.30
2018-02-19T03:11:57.234Z,53.60
2018-02-19T03:12:57.209Z,56.60
2018-02-19T03:13:57.180Z,60.30
2018-02-19T03:14:57.151Z,57.30
2018-02-19T03:15:57.130Z,54.90
2018-02-19T03:16:57.097Z,57.80
2018-02-19T03:17:57.064Z,54.50
2018-02-19T03:18:57.053Z,53.60
2018-02-19T03:19:57.015Z,60.10
2018-02-19T03:20:56.984Z,54.40
2018-02-19T03:21:56.970Z,54.00
2018-02-19T03:22:56.928Z,57.00
2018-02-19T03:23:56.895Z,55.60
2018-02-19T03:24:56.871Z,59.00
2018-02-19T03:25:56.839Z,53.70
2018-02-19T03:26:56.812Z,57.20
2018-02-19T03:27:56.804Z,51.50
2018-02-19T03:28:56.755Z,52.70
2018-02-19T03:29:56.744Z,51.40
2018-02-19T03:30:56.700Z,55.30
2018-02-19T03:31:56.671Z,51.00
2018-02-19T03:32:56.638Z,51.30
2018-02-19T03:33:56.613Z,54.60
2018-02-19T03:34:56.599Z,56.20
2018-02-19T03:35:56.554Z,54.40
2018-02-19T03:36:56.528Z,52.30
2018-02-19T03:37:56.502Z,51.90
2018-02-19T03:38:56.469Z,49.30
2018-02-19T03:39:56.444Z,56.00
2018-02-19T03:40:56.411Z,50.20
2018-02-19T03:41:56.388Z,52.80
2018-02-19T03:42:56.365Z,49.80
2018-02-19T03:43:56.330Z,51.50
2018-02-19T03:44:56.304Z,49.60
2018-02-19T03:45:56.272Z,47.70
2018-02-19T03:46:56.262Z,49.30
2018-02-19T03:47:56.209Z,50.50
2018-02-19T03:48:56.188Z,49.20
2018-02-19T03:49:56.191Z,50.30
2018-02-19T03:50:56.137Z,52.70
2018-02-19T03:51:56.097Z,49.90
2018-02-19T03:52:56.069Z,52.00
2018-02-19T03:53:56.047Z,51.70
2018-02-19T03:54:56.019Z,49.00
2018-02-19T03:55:55.986Z,51.40
2018-02-19T03:56:55.957Z,48.50
2018-02-19T03:57:55.931Z,51.20
2018-02-19T03:58:55.903Z,50.20
2018-02-19T03:59:55.872Z,50.80
2018-02-19T04:00:55.845Z,52.60
2018-02-19T04:01:55.821Z,49.80
2018-02-19T04:02:55.819Z,49.50
2018-02-19T04:03:55.767Z,52.60
2018-02-19T04:04:55.727Z,50.70
2018-02-19T04:05:55.708Z,52.30
2018-02-19T04:06:55.675Z,51.40
2018-02-19T04:07:55.647Z,52.10
2018-02-19T04:08:55.619Z,50.60
2018-02-19T04:09:55.607Z,52.80
2018-02-19T04:10:55.566Z,52.20
2018-02-19T04:11:55.533Z,50.90
2018-02-19T04:12:55.501Z,52.40
2018-02-19T04:13:55.477Z,52.30
2018-02-19T04:14:55.451Z,51.90
2018-02-19T04:15:55.418Z,53.30
2018-02-19T04:16:55.425Z,54.70
2018-02-19T04:17:55.365Z,48.40
2018-02-19T04:18:55.341Z,51.10
2018-02-19T04:19:55.304Z,47.90
2018-02-19T04:20:55.274Z,50.00
2018-02-19T04:21:55.252Z,54.20
2018-02-19T04:22:55.227Z,53.20
2018-02-19T04:23:55.197Z,54.20
2018-02-19T04:24:55.166Z,53.60
2018-02-19T04:25:55.135Z,52.60
2018-02-19T04:26:55.112Z,51.60
2018-02-19T04:27:55.077Z,52.30
2018-02-19T04:28:55.052Z,56.00
2018-02-19T04:29:55.025Z,52.10
2018-02-19T04:30:55.013Z,52.10
2018-02-19T04:31:54.975Z,51.40
2018-02-19T04:32:54.940Z,50.40
2018-02-19T04:33:54.911Z,51.40
2018-02-19T04:34:54.884Z,50.30
2018-02-19T04:35:54.853Z,54.50
2018-02-19T04:36:54.828Z,50.30
2018-02-19T04:37:54.798Z,51.00
2018-02-19T04:38:54.775Z,50.60
2018-02-19T04:39:54.739Z,51.20
2018-02-19T04:40:54.765Z,51.20
2018-02-19T04:41:54.701Z,52.10
2018-02-19T04:42:54.657Z,51.90
2018-02-19T04:43:54.630Z,52.90
2018-02-19T04:44:54.597Z,52.10
2018-02-19T04:45:54.569Z,49.80
2018-02-19T04:46:54.552Z,53.10
2018-02-19T04:47:54.518Z,51.60
2018-02-19T04:48:54.483Z,53.50
2018-02-19T04:49:54.460Z,58.30
2018-02-19T04:50:54.431Z,53.90
2018-02-19T04:51:54.399Z,50.80
2018-02-19T04:52:54.374Z,51.90
2018-02-19T04:53:54.348Z,54.20
2018-02-19T04:54:54.322Z,53.80
2018-02-19T04:55:54.289Z,53.30
2018-02-19T04:56:54.259Z,52.10
2018-02-19T04:57:54.232Z,49.80
2018-02-19T04:58:54.204Z,53.20
2018-02-19T04:59:54.170Z,54.30
2018-02-19T05:00:54.155Z,52.30
2018-02-19T05:01:54.119Z,51.70
2018-02-19T05:02:54.108Z,55.90
2018-02-19T05:03:54.060Z,51.50
2018-02-19T05:04:54.031Z,51.30
2018-02-19T05:05:54.016Z,51.00
2018-02-19T05:06:53.972Z,52.00
2018-02-19T05:07:53.947Z,53.40
2018-02-19T05:08:53.923Z,49.80
2018-02-19T05:09:53.891Z,53.20
2018-02-19T05:10:53.864Z,51.30
2018-02-19T05:11:53.832Z,53.50
2018-02-19T05:12:53.917Z,50.60
2018-02-19T05:13:53.774Z,53.60
2018-02-19T05:14:53.744Z,51.30
2018-02-19T05:15:53.721Z,51.40
2018-02-19T05:16:53.690Z,50.40
2018-02-19T05:17:53.661Z,49.70
2018-02-19T05:18:53.634Z,50.30
2018-02-19T05:19:53.605Z,50.00
2018-02-19T05:20:53.615Z,48.00
2018-02-19T05:21:53.550Z,49.90
2018-02-19T05:22:53.562Z,48.40
2018-02-19T05:23:53.498Z,49.30
2018-02-19T05:24:53.458Z,49.20
2018-02-19T05:25:53.433Z,50.60
2018-02-19T05:26:53.410Z,47.90
2018-02-19T05:27:53.391Z,47.80
2018-02-19T05:28:53.360Z,47.80
2018-02-19T05:29:53.320Z,48.30
2018-02-19T05:30:53.300Z,47.50
2018-02-19T05:31:53.262Z,50.80
2018-02-19T05:32:53.236Z,46.60
2018-02-19T05:33:53.212Z,49.50
2018-02-19T05:34:53.183Z,49.60
2018-02-19T05:35:53.145Z,47.50
2018-02-19T05:36:53.124Z,46.20
2018-02-19T05:37:53.091Z,47.00
2018-02-19T05:38:53.062Z,47.90
2018-02-19T05:39:53.039Z,47.30
2018-02-19T05:40:53.008Z,46.60
2018-02-19T05:41:52.982Z,45.70
2018-02-19T05:42:52.948Z,46.40
2018-02-19T05:43:52.929Z,43.10
2018-02-19T05:44:52.892Z,48.30
2018-02-19T05:45:52.875Z,44.90
2018-02-19T05:46:52.833Z,46.40
2018-02-19T05:47:52.809Z,44.70
2018-02-19T05:48:52.782Z,45.40
2018-02-19T05:49:52.755Z,46.30
2018-02-19T05:50:52.723Z,45.40
2018-02-19T05:51:52.703Z,45.40
2018-02-19T05:52:52.667Z,45.40
2018-02-19T05:53:52.638Z,46.10
2018-02-19T05:54:52.620Z,44.90
2018-02-19T05:55:52.582Z,46.10
2018-02-19T05:56:52.550Z,47.80
2018-02-19T05:57:52.539Z,42.30
2018-02-19T05:58:52.500Z,45.90
2018-02-19T05:59:52.488Z,47.30
2018-02-19T06:00:52.440Z,44.90
2018-02-19T06:01:52.407Z,45.60
2018-02-19T06:02:52.379Z,43.50
2018-02-19T06:03:52.356Z,45.90
2018-02-19T06:04:52.326Z,42.70
2018-02-19T06:05:52.543Z,43.20
2018-02-19T06:06:52.266Z,43.20
2018-02-19T06:07:52.240Z,47.20
2018-02-19T06:08:52.205Z,43.60
2018-02-19T06:09:52.178Z,45.90
2018-02-19T06:10:52.156Z,44.00
2018-02-19T06:11:52.128Z,43.10
2018-02-19T06:12:52.098Z,41.90
2018-02-19T06:13:52.068Z,43.70
2018-02-19T06:14:52.043Z,41.40
2018-02-19T06:15:52.011Z,44.00
2018-02-19T06:16:51.986Z,43.40
2018-02-19T06:17:51.954Z,41.90
2018-02-19T06:18:51.925Z,42.30
2018-02-19T06:19:51.900Z,43.20
2018-02-19T06:20:51.879Z,39.50
2018-02-19T06:21:51.868Z,42.80
2018-02-19T06:22:51.822Z,42.20
2018-02-19T06:23:51.815Z,41.60
2018-02-19T06:24:51.760Z,43.70
2018-02-19T06:25:51.728Z,43.00
2018-02-19T06:26:51.700Z,43.80
2018-02-19T06:27:51.666Z,42.30
2018-02-19T06:28:51.644Z,44.50
2018-02-19T06:29:51.615Z,43.90
2018-02-19T06:30:51.593Z,39.50
2018-02-19T06:31:51.565Z,42.80
2018-02-19T06:32:51.542Z,46.40
2018-02-19T06:33:51.535Z,42.50
2018-02-19T06:34:51.472Z,42.80
2018-02-19T06:35:51.446Z,43.40
2018-02-19T06:36:51.419Z,43.50
2018-02-19T06:37:51.388Z,44.40
2018-02-19T06:38:51.365Z,42.80
2018-02-19T06:39:51.327Z,44.40
2018-02-19T06:40:51.303Z,44.00
2018-02-19T06:41:51.270Z,44.60
2018-02-19T06:42:51.249Z,44.00
2018-02-19T06:43:51.216Z,45.70
2018-02-19T06:44:51.191Z,42.50
2018-02-19T06:45:51.174Z,43.10
2018-02-19T06:46:51.151Z,42.40
2018-02-19T06:47:51.104Z,42.10
2018-02-19T06:48:51.098Z,44.00
2018-02-19T06:49:51.049Z,46.00
2018-02-19T06:50:51.019Z,45.70
2018-02-19T06:51:50.990Z,41.90
2018-02-19T06:52:50.961Z,43.00
2018-02-19T06:53:50.988Z,45.30
2018-02-19T06:54:50.905Z,42.70
2018-02-19T06:55:50.885Z,43.80
2018-02-19T06:56:50.846Z,41.40
2018-02-19T06:57:50.819Z,43.10
2018-02-19T06:58:50.792Z,42.80
2018-02-19T06:59:50.766Z,42.10
2018-02-19T07:00:50.735Z,42.50
2018-02-19T07:01:50.712Z,44.30
2018-02-19T07:02:50.676Z,41.50
2018-02-19T07:03:50.649Z,42.50
2018-02-19T07:04:50.624Z,40.20
2018-02-19T07:05:50.592Z,42.50
2018-02-19T07:06:50.564Z,42.10
2018-02-19T07:07:50.537Z,43.00
2018-02-19T07:08:50.513Z,43.10
2018-02-19T07:09:50.478Z,41.00
2018-02-19T07:10:50.450Z,43.10
2018-02-19T07:11:50.431Z,42.80
2018-02-19T07:12:50.395Z,43.20
2018-02-19T07:13:50.367Z,43.20
2018-02-19T07:14:50.333Z,44.10
2018-02-19T07:15:50.312Z,42.00
2018-02-19T07:16:50.281Z,41.90
2018-02-19T07:17:50.256Z,42.80
2018-02-19T07:18:50.225Z,45.00
2018-02-19T07:19:50.195Z,42.90
2018-02-19T07:20:50.168Z,43.60
2018-02-19T07:21:50.142Z,41.90
2018-02-19T07:22:50.111Z,43.70
2018-02-19T07:23:50.083Z,45.30
2018-02-19T07:24:50.055Z,42.70
2018-02-19T07:25:50.030Z,45.60
2018-02-19T07:26:49.997Z,42.20
2018-02-19T07:27:49.983Z,41.30
2018-02-19T07:28:49.945Z,41.70
2018-02-19T07:29:49.914Z,43.60
2018-02-19T07:30:49.888Z,41.30
2018-02-19T07:31:49.857Z,41.50
2018-02-19T07:32:49.826Z,42.80
2018-02-19T07:33:49.803Z,41.20
2018-02-19T07:34:49.770Z,42.80
2018-02-19T07:35:49.774Z,42.10
2018-02-19T07:36:49.715Z,42.80
2018-02-19T07:37:49.690Z,42.70
2018-02-19T07:38:49.661Z,45.10
2018-02-19T07:39:49.627Z,42.60
2018-02-19T07:40:49.604Z,42.90
2018-02-19T07:41:49.577Z,40.80
2018-02-19T07:42:49.551Z,45.90
2018-02-19T07:43:49.512Z,43.10
2018-02-19T07:44:49.488Z,41.60
2018-02-19T07:45:49.469Z,42.20
2018-02-19T07:46:49.433Z,43.60
2018-02-19T07:47:49.407Z,42.40
2018-02-19T07:48:49.376Z,41.90
2018-02-19T07:49:49.364Z,38.80
2018-02-19T07:50:49.326Z,42.40
2018-02-19T07:51:49.296Z,40.90
2018-02-19T07:52:49.266Z,42.30
2018-02-19T07:53:49.240Z,42.70
2018-02-19T07:54:49.215Z,41.70
2018-02-19T07:55:49.204Z,44.20
2018-02-19T07:56:49.150Z,43.20
2018-02-19T07:57:49.127Z,42.30
2018-02-19T07:58:49.097Z,39.90
2018-02-19T07:59:49.068Z,43.20
2018-02-19T08:00:49.038Z,43.00
2018-02-19T08:01:49.015Z,42.00
2018-02-19T08:02:49.005Z,40.80
2018-02-19T08:03:48.953Z,41.00
2018-02-19T08:04:48.925Z,41.40
2018-02-19T08:05:48.900Z,40.90
2018-02-19T08:06:48.882Z,42.10
2018-02-19T08:07:48.843Z,41.40
2018-02-19T08:08:48.815Z,41.50
2018-02-19T08:09:48.793Z,42.40
2018-02-19T08:10:48.761Z,41.50
2018-02-19T08:11:48.730Z,42.90
2018-02-19T08:12:48.704Z,39.10
2018-02-19T08:13:48.673Z,41.10
2018-02-19T08:14:48.647Z,40.50
2018-02-19T08:15:48.620Z,40.70
2018-02-19T08:16:48.613Z,39.50
2018-02-19T08:17:48.580Z,41.50
2018-02-19T08:18:48.541Z,39.40
2018-02-19T08:19:48.528Z,40.80
2018-02-19T08:20:48.479Z,38.60
2018-02-19T08:21:48.465Z,39.50
2018-02-19T08:22:48.424Z,38.80
2018-02-19T08:23:48.395Z,39.50
2018-02-19T08:24:48.383Z,37.90
2018-02-19T08:25:48.334Z,40.60
2018-02-19T08:26:48.331Z,39.20
2018-02-19T08:27:48.277Z,39.00
2018-02-19T08:28:48.274Z,39.50
2018-02-19T08:29:48.230Z,40.10
2018-02-19T08:30:48.233Z,41.40
2018-02-19T08:31:48.215Z,41.60
2018-02-19T08:32:48.184Z,38.70
2018-02-19T08:33:48.323Z,40.60
2018-02-19T08:34:48.085Z,40.20
2018-02-19T08:35:48.080Z,38.00
2018-02-19T08:36:48.027Z,41.30
2018-02-19T08:37:48.003Z,36.40
2018-02-19T08:38:47.974Z,39.30
2018-02-19T08:39:47.950Z,41.70
2018-02-19T08:40:47.918Z,41.20
2018-02-19T08:41:47.897Z,39.80
2018-02-19T08:42:47.863Z,40.30
2018-02-19T08:43:47.838Z,39.00
2018-02-19T08:44:47.805Z,36.30
2018-02-19T08:45:47.783Z,39.40
2018-02-19T08:46:47.752Z,36.30
2018-02-19T08:47:47.726Z,38.10
2018-02-19T08:48:47.701Z,37.70
2018-02-19T08:49:47.676Z,37.70
2018-02-19T08:50:47.644Z,38.80
2018-02-19T08:51:47.613Z,38.00
2018-02-19T08:52:47.594Z,36.80
2018-02-19T08:53:47.564Z,37.20
2018-02-19T08:54:47.535Z,36.60
2018-02-19T08:55:47.501Z,35.90
2018-02-19T08:56:47.479Z,36.40
2018-02-19T08:57:47.450Z,36.10
2018-02-19T08:58:47.422Z,36.10
2018-02-19T08:59:47.399Z,35.80
2018-02-19T09:00:47.366Z,35.40
2018-02-19T09:01:47.338Z,34.20
2018-02-19T09:02:47.315Z,35.90
2018-02-19T09:03:47.286Z,34.50
2018-02-19T09:04:47.259Z,37.10
2018-02-19T09:05:47.274Z,36.80
2018-02-19T09:06:47.207Z,36.00
2018-02-19T09:07:47.194Z,36.90
2018-02-19T09:08:47.144Z,36.00
2018-02-19T09:09:47.137Z,32.90
2018-02-19T09:10:47.095Z,32.90
2018-02-19T09:11:47.079Z,35.90
2018-02-19T09:12:47.038Z,33.70
2018-02-19T09:13:47.010Z,35.20
2018-02-19T09:14:46.983Z,33.80
2018-02-19T09:15:46.949Z,32.50
2018-02-19T09:16:46.928Z,33.10
2018-02-19T09:17:46.901Z,33.20
2018-02-19T09:18:46.876Z,33.20
2018-02-19T09:19:46.840Z,31.80
2018-02-19T09:20:46.818Z,34.00
2018-02-19T09:21:46.789Z,32.30
2018-02-19T09:22:46.771Z,33.40
2018-02-19T09:23:46.732Z,34.20
2018-02-19T09:24:46.708Z,33.60
2018-02-19T09:25:46.679Z,35.30
2018-02-19T09:26:46.678Z,31.80
2018-02-19T09:27:46.622Z,32.20
2018-02-19T09:28:46.594Z,33.60
2018-02-19T09:29:46.590Z,30.60
2018-02-19T09:30:46.541Z,32.90
2018-02-19T09:31:46.512Z,30.50
2018-02-19T09:32:46.492Z,30.50
2018-02-19T09:33:46.460Z,31.90
2018-02-19T09:34:46.430Z,31.00
2018-02-19T09:35:46.409Z,31.80
2018-02-19T09:36:46.373Z,31.80
2018-02-19T09:37:46.354Z,32.00
2018-02-19T09:38:46.343Z,33.60
2018-02-19T09:39:46.299Z,28.70
2018-02-19T09:40:46.265Z,33.30
2018-02-19T09:41:46.301Z,32.00
2018-02-19T09:42:46.214Z,32.20
2018-02-19T09:43:46.190Z,31.70
2018-02-19T09:44:46.167Z,31.60
2018-02-19T09:45:46.130Z,30.50
2018-02-19T09:46:46.103Z,31.80
2018-02-19T09:47:46.125Z,30.60
2018-02-19T09:48:46.053Z,29.00
2018-02-19T09:49:46.023Z,30.00
2018-02-19T09:50:45.996Z,28.80
2018-02-19T09:51:45.969Z,29.00
2018-02-19T09:52:45.945Z,30.50
2018-02-19T09:53:45.914Z,29.30
2018-02-19T09:54:45.885Z,30.60
2018-02-19T09:55:45.862Z,31.00
2018-02-19T09:56:45.836Z,31.10
2018-02-19T09:57:45.804Z,30.40
2018-02-19T09:58:45.779Z,28.80
2018-02-19T09:59:45.773Z,31.00
2018-02-19T10:00:45.727Z,29.80
2018-02-19T10:01:46.452Z,30.80
2018-02-19T10:02:45.674Z,31.00
2018-02-19T10:03:45.643Z,28.80
2018-02-19T10:04:45.616Z,29.90
2018-02-19T10:05:45.606Z,30.60
2018-02-19T10:06:45.565Z,28.90
2018-02-19T10:07:45.536Z,31.60
2018-02-19T10:08:45.529Z,28.60
2018-02-19T10:09:45.480Z,30.60
2018-02-19T10:10:45.475Z,27.40
2018-02-19T10:11:45.428Z,27.00
2018-02-19T10:12:45.404Z,28.80
2018-02-19T10:13:45.372Z,29.50
2018-02-19T10:14:45.347Z,28.90
2018-02-19T10:15:45.322Z,30.20
2018-02-19T10:16:45.294Z,30.40
2018-02-19T10:17:45.268Z,29.30
2018-02-19T10:18:45.239Z,30.60
2018-02-19T10:19:45.211Z,31.00
2018-02-19T10:20:45.184Z,30.30
2018-02-19T10:21:45.162Z,29.30
2018-02-19T10:22:45.131Z,30.60
2018-02-19T10:23:45.103Z,29.60
2018-02-19T10:24:45.078Z,29.30
2018-02-19T10:25:45.049Z,28.30
2018-02-19T10:26:45.044Z,30.40
2018-02-19T10:27:44.995Z,30.80
2018-02-19T10:28:44.973Z,30.10
2018-02-19T10:29:44.949Z,29.70
2018-02-19T10:30:44.919Z,30.10
2018-02-19T10:31:44.889Z,31.60
2018-02-19T10:32:44.866Z,31.00
2018-02-19T10:33:44.848Z,33.50
2018-02-19T10:34:44.854Z,32.20
2018-02-19T10:35:44.838Z,32.00
2018-02-19T10:36:44.755Z,29.60
2018-02-19T10:37:44.729Z,29.90
2018-02-19T10:38:44.718Z,33.00
2018-02-19T10:39:44.672Z,31.80
2018-02-19T10:40:44.646Z,31.60
2018-02-19T10:41:44.623Z,31.40
2018-02-19T10:42:44.592Z,35.20
2018-02-19T10:43:44.568Z,32.80
2018-02-19T10:44:44.576Z,35.90
2018-02-19T10:45:44.524Z,35.90
2018-02-19T10:46:44.499Z,37.00
2018-02-19T10:47:44.460Z,30.80
2018-02-19T10:48:44.442Z,31.80
2018-02-19T10:49:44.407Z,36.50
2018-02-19T10:50:44.378Z,33.40
2018-02-19T10:51:44.353Z,30.30
2018-02-19T10:52:44.372Z,34.40
2018-02-19T10:53:44.315Z,32.80
2018-02-19T10:54:44.269Z,29.60
2018-02-19T10:55:44.248Z,30.90
2018-02-19T10:56:44.220Z,30.30
2018-02-19T10:57:44.191Z,31.20
2018-02-19T10:58:44.166Z,30.50
2018-02-19T10:59:44.138Z,31.50
2018-02-19T11:00:44.122Z,30.60
2018-02-19T11:01:44.101Z,32.90
2018-02-19T11:02:44.089Z,32.00
2018-02-19T11:03:44.052Z,30.60
2018-02-19T11:04:44.009Z,30.30
2018-02-19T11:05:43.988Z,31.40
2018-02-19T11:06:43.955Z,31.90
2018-02-19T11:07:43.929Z,29.60
2018-02-19T11:08:43.904Z,28.80
2018-02-19T11:09:43.871Z,31.30
2018-02-19T11:10:43.846Z,30.70
2018-02-19T11:11:43.857Z,33.80
2018-02-19T11:12:43.838Z,30.50
2018-02-19T11:13:43.821Z,31.10
2018-02-19T11:14:43.779Z,30.80
2018-02-19T11:15:43.724Z,29.90
2018-02-19T11:16:43.688Z,30.50
2018-02-19T11:17:43.723Z,30.40
2018-02-19T11:18:43.634Z,30.80
2018-02-19T11:19:43.647Z,28.80
2018-02-19T11:20:43.580Z,30.60
2018-02-19T11:21:43.574Z,30.10
2018-02-19T11:22:43.549Z,29.60
2018-02-19T11:23:43.578Z,31.00
2018-02-19T11:24:43.472Z,30.50
2018-02-19T11:25:43.447Z,29.60
2018-02-19T11:26:43.416Z,29.70
2018-02-19T11:27:43.394Z,28.90
2018-02-19T11:28:43.370Z,30.60
2018-02-19T11:29:43.339Z,29.30
2018-02-19T11:30:43.323Z,31.40
2018-02-19T11:31:43.380Z,28.80
2018-02-19T11:32:43.267Z,30.20
2018-02-19T11:33:43.306Z,31.40
2018-02-19T11:34:43.215Z,30.40
2018-02-19T11:35:43.178Z,29.70
2018-02-19T11:36:43.154Z,33.20
2018-02-19T11:37:43.126Z,29.40
2018-02-19T11:38:43.121Z,31.30
2018-02-19T11:39:43.077Z,30.10
2018-02-19T11:40:43.056Z,31.10
2018-02-19T11:41:43.047Z,31.30
2018-02-19T11:42:43.048Z,30.40
2018-02-19T11:43:42.968Z,32.00
2018-02-19T11:44:42.938Z,30.80
2018-02-19T11:45:42.917Z,30.10
2018-02-19T11:46:42.944Z,29.30
2018-02-19T11:47:42.937Z,29.30
2018-02-19T11:48:42.884Z,28.70
2018-02-19T11:49:42.811Z,32.50
2018-02-19T11:50:42.786Z,31.10
2018-02-19T11:51:42.751Z,28.90
2018-02-19T11:52:42.751Z,29.30
2018-02-19T11:53:42.704Z,30.50
2018-02-19T11:54:42.697Z,32.50
2018-02-19T11:55:42.650Z,30.90
2018-02-19T11:56:42.629Z,29.20
2018-02-19T11:57:42.611Z,28.80
2018-02-19T11:58:42.573Z,29.10
2018-02-19T11:59:42.546Z,30.40
2018-02-19T12:00:42.519Z,31.70
2018-02-19T12:01:42.538Z,30.10
2018-02-19T12:02:42.537Z,31.90
2018-02-19T12:03:42.441Z,30.50
2018-02-19T12:04:42.426Z,31.60
2018-02-19T12:05:42.384Z,31.80
2018-02-19T12:06:42.368Z,29.90
2018-02-19T12:07:42.417Z,28.40
2018-02-19T12:08:42.311Z,29.90
2018-02-19T12:09:42.280Z,30.30
2018-02-19T12:10:42.259Z,29.00
2018-02-19T12:11:42.232Z,29.70
2018-02-19T12:12:42.207Z,31.30
2018-02-19T12:13:42.174Z,30.50
2018-02-19T12:14:42.164Z,29.60
2018-02-19T12:15:42.176Z,31.10
2018-02-19T12:16:42.098Z,31.00
2018-02-19T12:17:42.090Z,31.30
2018-02-19T12:18:42.042Z,29.70
2018-02-19T12:19:42.021Z,30.40
2018-02-19T12:20:41.993Z,30.50
2018-02-19T12:21:41.967Z,28.00
2018-02-19T12:22:41.939Z,29.40
2018-02-19T12:23:41.919Z,30.20
2018-02-19T12:24:41.889Z,30.30
2018-02-19T12:25:41.863Z,28.50
2018-02-19T12:26:41.837Z,29.60
2018-02-19T12:27:41.886Z,28.50
2018-02-19T12:28:41.822Z,27.90
2018-02-19T12:29:41.812Z,28.10
2018-02-19T12:30:41.732Z,27.70
2018-02-19T12:31:41.757Z,29.80
2018-02-19T12:32:41.678Z,28.70
2018-02-19T12:33:41.661Z,29.40
2018-02-19T12:34:41.630Z,27.50
2018-02-19T12:35:41.600Z,28.90
2018-02-19T12:36:41.605Z,29.80
2018-02-19T12:37:41.551Z,26.40
2018-02-19T12:38:41.571Z,30.50
2018-02-19T12:39:41.496Z,29.90
2018-02-19T12:40:41.478Z,30.90
2018-02-19T12:41:41.533Z,30.70
2018-02-19T12:42:41.422Z,29.40
2018-02-19T12:43:42.011Z,30.20
2018-02-19T12:44:41.369Z,30.90
2018-02-19T12:45:41.345Z,27.70
2018-02-19T12:46:41.338Z,30.00
2018-02-19T12:47:41.296Z,30.10
2018-02-19T12:48:41.353Z,28.80
2018-02-19T12:49:41.238Z,29.30
2018-02-19T12:50:41.217Z,31.60
2018-02-19T12:51:41.219Z,29.60